Flight Track Log - Related Links

Times and Time Zones

All times are in EDT time to prevent confusion due to time zone crossing. See the VH-LHH flight status page for this flight to view local times or setup timezone preferences in your user account.


Time Position Orientation Groundspeed Altitude Reporting Facility
EDT Latitude Longitude Course Direction KTS MPH feet Rate Location/Type
Fri 11:42:48 PM -12.4272 130.9026 142° Southeast 88 101 1,000  Level Aus ATC (RADAR)
Fri 11:43:43 PM -12.4471 130.9187 142° Southeast 96 110 1,800 818 Climbing Aus ATC (RADAR)
Fri 11:44:38 PM -12.4678 130.9333 145° Southeast 90 104 2,500 733 Climbing Aus ATC (RADAR)
Fri 11:45:13 PM -12.4814 130.9415 150° Southeast 93 107 2,900 222 Climbing Aus ATC (RADAR)
Fri 11:46:53 PM -12.5265 130.9670 151° Southeast 110 127 3,000 267 Climbing Aus ATC (RADAR)
Fri 11:49:43 PM -12.5774 130.9066 229° Southwest 149 171 4,100 222 Climbing Aus ATC (RADAR)
Fri 11:51:23 PM -12.5955 130.8339 256° West 159 183 4,000 -31 Descending Aus ATC (RADAR)
Fri 11:52:57 PM -12.6131 130.7647 255° West 160 184 4,000  Level Aus ATC (RADAR)
Fri 11:54:03 PM -12.6256 130.7171 255° West 159 183 4,000  Level Aus ATC (RADAR)
Fri 11:55:42 PM -12.6443 130.6426 256° West 164 189 4,000  Level Aus ATC (RADAR)
Fri 11:57:22 PM -12.6648 130.5670 254° West 166 191 4,000  Level Aus ATC (RADAR)
Fri 11:58:47 PM -12.6813 130.5025 255° West 165 190 4,000  Level Aus ATC (RADAR)
Fri 11:59:52 PM -12.6942 130.4536 255° West 164 189 4,000 -40 Level Aus ATC (RADAR)
Sat 12:01:17 AM -12.7098 130.3894 256° West 166 191 3,900 32 Descending Aus ATC (RADAR)
Sat 12:03:02 AM -12.7305 130.3107 255° West 160 184 4,100 24 Climbing Aus ATC (RADAR)
Sat 12:05:26 AM -12.7568 130.2042 256° West 161 185 4,000 -26 Descending Aus ATC (RADAR)
Sat 12:06:51 AM -12.7737 130.1411 255° West 161 185 4,000  Level Aus ATC (RADAR)
Sat 12:08:37 AM -12.7933 130.0629 256° West 161 185 4,000  Level Aus ATC (RADAR)
Sat 12:11:01 AM -12.8203 129.9556 256° West 160 184 4,000  Level Aus ATC (RADAR)
Sat 12:12:26 AM -12.8361 129.8930 255° West 160 184 4,000  Level Aus ATC (RADAR)
Sat 12:14:10 AM -12.8541 129.8151 257° West 159 183 4,000  Level Aus ATC (RADAR)
Sat 12:16:40 AM -12.8781 129.7032 258° West 160 184 4,000  Level Aus ATC (RADAR)
Sat 12:18:00 AM -12.8916 129.6438 257° West 159 183 4,000  Level Aus ATC (RADAR)
Sat 12:19:45 AM -12.9244 129.5711 245° Southwest 162 186 4,000  Level Aus ATC (RADAR)
Sat 12:22:20 AM -12.9669 129.4611 248° West 160 184 4,000  Level Aus ATC (RADAR)
Sat 12:23:00 AM -12.9781 129.4324 248° West 162 186 4,000  Level Aus ATC (RADAR)
Sat 12:26:04 AM -13.0356 129.2779 67° East 4,000  Level Aus ATC (Calculated)
Sat 12:26:04 AM -13.0356 129.2779 249° West 4,000  Level Aus ATC (Calculated)
Sat 12:28:00 AM -13.0620 129.2068 249° West  Level FlightAware Approximate
Sat 12:29:00 AM -13.0757 129.1700 249° West  Level FlightAware Approximate
Sat 12:30:00 AM -13.0893 129.1332 249° West  Level FlightAware Approximate
Sat 12:31:00 AM -13.1030 129.0964 249° West  Level FlightAware Approximate
Sat 12:32:00 AM -13.1166 129.0596 249° West  Level FlightAware Approximate
Sat 12:33:00 AM -13.1303 129.0228 249° West  Level FlightAware Approximate
Sat 12:34:00 AM -13.1439 128.9860 249° West  Level FlightAware Approximate
Sat 12:35:00 AM -13.1575 128.9491 249° West  Level FlightAware Approximate
Sat 12:36:00 AM -13.1712 128.9123 249° West  Level FlightAware Approximate
Sat 12:37:00 AM -13.1848 128.8755 249° West  Level FlightAware Approximate
Sat 12:38:00 AM -13.1984 128.8387 249° West  Level FlightAware Approximate
Sat 12:39:00 AM -13.2120 128.8018 249° West  Level FlightAware Approximate
Sat 12:40:00 AM -13.2256 128.7650 249° West  Level FlightAware Approximate
Sat 12:41:00 AM -13.2392 128.7281 249° West  Level FlightAware Approximate
Sat 12:42:00 AM -13.2528 128.6913 249° West  Level FlightAware Approximate
Sat 12:43:00 AM -13.2664 128.6544 249° West  Level FlightAware Approximate
Sat 12:44:00 AM -13.2800 128.6176 249° West  Level FlightAware Approximate
Sat 12:45:00 AM -13.2936 128.5807 249° West  Level FlightAware Approximate
Sat 12:46:00 AM -13.3065 128.5435 249° West  Level Estimated
Sat 12:47:00 AM -13.3201 128.5067 249° West  Level FlightAware Approximate
Sat 12:48:00 AM -13.3337 128.4698 249° West  Level FlightAware Approximate
Sat 12:49:00 AM -13.3472 128.4330 249° West  Level FlightAware Approximate
Sat 12:50:00 AM -13.3608 128.3961 249° West  Level FlightAware Approximate
Sat 12:50:02 AM -13.3608 128.3980 249° West 4,000  Level Aus ATC (Calculated)
Sat 12:52:00 AM -13.3875 128.3254 249° West  Level FlightAware Approximate
Sat 12:53:00 AM -13.4010 128.2885 249° West  Level FlightAware Approximate
Sat 12:54:00 AM -13.4145 128.2516 249° West  Level FlightAware Approximate
Sat 12:54:03 AM -13.4275 128.2164 249° West 4,000  Level Aus ATC (Calculated)
Sat 12:55:47 AM -13.4608 128.1255 249° West 4,000  Level Aus ATC (Calculated)
Sat 12:57:00 AM -13.4775 128.0798 249° West  Level FlightAware Approximate
Sat 12:58:00 AM -13.4912 128.0423 249° West  Level FlightAware Approximate
Sat 12:59:00 AM -13.5049 128.0047 249° West  Level FlightAware Approximate
Sat 01:00:00 AM -13.5187 127.9672 249° West  Level FlightAware Approximate
Sat 01:01:00 AM -13.5324 127.9297 249° West  Level FlightAware Approximate
Sat 01:02:00 AM -13.5461 127.8921 249° West  Level FlightAware Approximate
Sat 01:03:00 AM -13.5598 127.8546 249° West  Level FlightAware Approximate
Sat 01:04:00 AM -13.5735 127.8170 249° West  Level FlightAware Approximate
Sat 01:05:00 AM -13.5871 127.7795 249° West  Level FlightAware Approximate
Sat 01:06:00 AM -13.6008 127.7419 249° West  Level FlightAware Approximate
Sat 01:07:00 AM -13.6145 127.7044 249° West  Level FlightAware Approximate
Sat 01:08:00 AM -13.6282 127.6668 249° West  Level FlightAware Approximate
Sat 01:09:00 AM -13.6419 127.6292 249° West  Level FlightAware Approximate
Sat 01:10:00 AM -13.6555 127.5916 249° West  Level FlightAware Approximate
Sat 01:11:00 AM -13.6692 127.5540 249° West  Level FlightAware Approximate
Sat 01:12:00 AM -13.6828 127.5165 250° West  Level FlightAware Approximate
Sat 01:13:00 AM -13.6965 127.4789 250° West  Level FlightAware Approximate
Sat 01:14:00 AM -13.7101 127.4413 250° West  Level FlightAware Approximate
Sat 01:15:00 AM -13.7237 127.4037 250° West  Level FlightAware Approximate
Sat 01:16:00 AM -13.7374 127.3661 250° West  Level FlightAware Approximate
Sat 01:17:00 AM -13.7510 127.3285 250° West  Level FlightAware Approximate
Sat 01:18:00 AM -13.7646 127.2908 250° West  Level FlightAware Approximate
Sat 01:19:00 AM -13.7782 127.2532 250° West  Level FlightAware Approximate
Sat 01:20:00 AM -13.7918 127.2156 250° West  Level FlightAware Approximate
Sat 01:21:00 AM -13.8054 127.1780 250° West  Level FlightAware Approximate
Sat 01:22:00 AM -13.8190 127.1404 250° West  Level FlightAware Approximate
Sat 01:23:00 AM -13.8326 127.1027 250° West  Level FlightAware Approximate
Sat 01:24:00 AM -13.8462 127.0651 250° West  Level FlightAware Approximate
Sat 01:25:00 AM -13.8597 127.0274 250° West  Level FlightAware Approximate
Sat 01:26:00 AM -13.8733 126.9898 250° West  Level FlightAware Approximate
Sat 01:27:00 AM -13.8869 126.9521 250° West  Level FlightAware Approximate
Sat 01:28:00 AM -13.9004 126.9145 250° West  Level FlightAware Approximate
Sat 01:28:05 AM -13.8862 126.9540 250° West 500  Level Aus ATC (Calculated)
Sat 01:30:00 AM -13.9122 126.8819 250° West  Level FlightAware Approximate
Sat 01:31:00 AM -13.9255 126.8441 270° West  Level Estimated
Sat 01:32:00 AM -13.9388 126.8064 270° West  Level Estimated
Sat 01:33:00 AM -13.9521 126.7686 270° West  Level Estimated
Sat 01:34:00 AM -13.9654 126.7308 270° West  Level Estimated
Sat 01:35:00 AM -13.9787 126.6931 270° West  Level Estimated
Sat 01:36:00 AM -13.9920 126.6553 270° West  Level Estimated
Sat 01:37:00 AM -14.0053 126.6175 270° West  Level Estimated
Sat 01:38:00 AM -14.0186 126.5798 270° West  Level Estimated
Sat 01:39:00 AM -14.0319 126.5420 270° West  Level Estimated
Sat 01:40:00 AM -14.0452 126.5042 270° West  Level Estimated
Sat 01:41:00 AM -14.0584 126.4664 270° West  Level Estimated
Sat 01:42:00 AM -14.0717 126.4286 270° West  Level Estimated
Sat 01:43:00 AM -14.0850 126.3908 270° West  Level Estimated
Sat 01:44:00 AM -14.0897 126.3807 270° West  Level FlightAware Approximate
Sat 01:45:00 AM -14.0884 126.3810 270° West  Level Estimated
Sat 01:46:00 AM -14.0897 126.3807 270° West  Level FlightAware Approximate
Sat 01:47:00 AM -14.0884 126.3810 270° West  Level Estimated
Sat 01:48:00 AM -14.0897 126.3807 270° West  Level FlightAware Approximate
Sat 01:49:00 AM -14.0884 126.3810 270° West  Level Estimated
Sat 01:50:00 AM -14.0897 126.3807 270° West  Level FlightAware Approximate
Sat 01:51:00 AM -14.0884 126.3810 270° West  Level Estimated
Sat 01:52:00 AM -14.0897 126.3807 270° West  Level FlightAware Approximate
Sat 01:53:00 AM -14.0884 126.3810 270° West  Level Estimated
Sat 01:54:00 AM -14.0897 126.3807 270° West  Level FlightAware Approximate
Sat 01:55:00 AM -14.0884 126.3810 270° West  Level Estimated
Sat 01:56:00 AM -14.0897 126.3807 270° West  Level FlightAware Approximate
Sat 01:57:00 AM -14.0884 126.3810 270° West  Level Estimated
Sat 01:58:00 AM -14.0897 126.3807 270° West  Level FlightAware Approximate

Login

Don't have an account? Register now (free) for customized features, flight alerts, and more!